TimeEDT,TemperatureF,Dew PointF,Humidity,Sea Level PressureIn,VisibilityMPH,Wind Direction,Wind SpeedMPH,Gust SpeedMPH,PrecipitationIn,Events,Conditions,WindDirDegrees,DateUTC
12:15 AM,75.6,73.0,92,30.02,10.0,SSW,5.8,-,N/A,,Scattered Clouds,200,2013-07-13 04:15:00
12:35 AM,76.1,73.4,91,30.03,10.0,WNW,3.5,-,N/A,,Mostly Cloudy,300,2013-07-13 04:35:00
12:55 AM,74.8,72.9,94,30.03,10.0,Calm,Calm,-,N/A,,Mostly Cloudy,0,2013-07-13 04:55:00
1:15 AM,73.8,73.2,98,30.03,10.0,Calm,Calm,-,N/A,,Overcast,0,2013-07-13 05:15:00
1:35 AM,74.1,73.4,98,30.03,10.0,Calm,Calm,-,N/A,,Overcast,0,2013-07-13 05:35:00
1:55 AM,74.3,73.4,97,30.03,10.0,Calm,Calm,-,N/A,,Overcast,0,2013-07-13 05:55:00
2:15 AM,73.9,73.4,98,30.03,10.0,Calm,Calm,-,N/A,,Overcast,0,2013-07-13 06:15:00
2:35 AM,73.6,73.2,99,30.03,10.0,Calm,Calm,-,N/A,,Overcast,0,2013-07-13 06:35:00
2:55 AM,74.3,73.4,97,30.03,10.0,Calm,Calm,-,N/A,,Overcast,0,2013-07-13 06:55:00
3:15 AM,75.0,73.9,96,30.03,4.0,Calm,Calm,-,0.06,Rain,Heavy Rain,0,2013-07-13 07:15:00
3:35 AM,75.2,74.3,97,30.03,10.0,ENE,3.5,-,0.06,,Overcast,60,2013-07-13 07:35:00
3:55 AM,75.0,74.3,98,30.04,10.0,Calm,Calm,-,0.06,,Overcast,0,2013-07-13 07:55:00
4:15 AM,74.8,74.3,98,30.04,10.0,ESE,3.5,-,N/A,,Mostly Cloudy,120,2013-07-13 08:15:00
4:35 AM,74.5,73.8,98,30.04,10.0,Calm,Calm,-,N/A,,Scattered Clouds,0,2013-07-13 08:35:00
4:55 AM,73.4,73.4,100,30.04,7.0,NNE,3.5,-,N/A,,Scattered Clouds,30,2013-07-13 08:55:00
5:15 AM,73.4,73.4,100,30.04,7.0,Calm,Calm,-,N/A,,Scattered Clouds,0,2013-07-13 09:15:00
5:35 AM,74.3,74.1,99,30.05,10.0,SSE,4.6,-,N/A,,Clear,150,2013-07-13 09:35:00
5:55 AM,74.8,74.3,98,30.06,10.0,SE,3.5,-,N/A,,Scattered Clouds,140,2013-07-13 09:55:00
6:15 AM,75.9,74.7,96,30.07,10.0,SSE,5.8,-,N/A,,Mostly Cloudy,150,2013-07-13 10:15:00
6:35 AM,75.4,74.1,96,30.08,3.0,South,16.1,24.2,0.06,Rain,Rain,190,2013-07-13 10:35:00
6:55 AM,75.9,73.2,91,30.09,7.0,South,9.2,16.1,0.07,,Overcast,190,2013-07-13 10:55:00
7:15 AM,76.3,73.8,92,30.08,10.0,South,6.9,-,N/A,,Mostly Cloudy,170,2013-07-13 11:15:00
7:35 AM,77.7,73.8,88,30.10,10.0,South,10.4,18.4,N/A,,Scattered Clouds,180,2013-07-13 11:35:00
7:55 AM,78.1,73.4,85,30.11,10.0,South,11.5,-,N/A,,Mostly Cloudy,190,2013-07-13 11:55:00
8:15 AM,79.7,74.3,83,30.11,10.0,South,13.8,-,N/A,,Mostly Cloudy,190,2013-07-13 12:15:00
8:35 AM,80.1,74.1,82,30.13,10.0,South,12.7,-,N/A,,Scattered Clouds,190,2013-07-13 12:35:00
8:55 AM,80.2,74.1,82,30.14,10.0,SSW,15.0,-,N/A,,Overcast,200,2013-07-13 12:55:00
9:15 AM,80.6,74.5,82,30.14,10.0,South,12.7,-,N/A,,Scattered Clouds,190,2013-07-13 13:15:00
9:35 AM,81.1,74.3,80,30.14,10.0,SSW,13.8,17.3,N/A,,Clear,200,2013-07-13 13:35:00
9:55 AM,82.4,75.6,80,30.15,10.0,South,11.5,-,N/A,,Scattered Clouds,190,2013-07-13 13:55:00
10:15 AM,82.9,73.9,74,30.15,10.0,South,13.8,-,N/A,,Mostly Cloudy,190,2013-07-13 14:15:00
10:35 AM,83.3,73.9,73,30.16,10.0,South,12.7,19.6,N/A,,Scattered Clouds,180,2013-07-13 14:35:00
10:55 AM,83.7,73.9,72,30.17,10.0,South,15.0,-,N/A,,Clear,190,2013-07-13 14:55:00
11:15 AM,83.7,74.1,73,30.17,10.0,South,12.7,19.6,N/A,,Scattered Clouds,190,2013-07-13 15:15:00
11:35 AM,83.7,73.8,72,30.18,10.0,South,15.0,20.7,N/A,,Scattered Clouds,180,2013-07-13 15:35:00
11:55 AM,84.2,74.3,72,30.17,10.0,South,16.1,21.9,N/A,,Clear,180,2013-07-13 15:55:00
12:15 PM,84.0,74.5,73,30.17,10.0,South,15.0,19.6,N/A,,Scattered Clouds,170,2013-07-13 16:15:00
12:35 PM,84.2,73.4,70,30.18,10.0,South,16.1,23.0,N/A,,Scattered Clouds,170,2013-07-13 16:35:00
12:55 PM,84.2,74.1,72,30.18,10.0,South,16.1,-,N/A,,Scattered Clouds,170,2013-07-13 16:55:00
1:15 PM,84.2,73.4,70,30.18,10.0,South,15.0,24.2,N/A,,Scattered Clouds,180,2013-07-13 17:15:00
1:35 PM,84.4,73.4,69,30.19,10.0,South,17.3,23.0,N/A,,Scattered Clouds,180,2013-07-13 17:35:00
1:55 PM,83.8,73.8,72,30.19,10.0,South,16.1,25.3,N/A,,Mostly Cloudy,180,2013-07-13 17:55:00
2:15 PM,83.8,73.9,72,30.18,10.0,South,16.1,25.3,N/A,,Overcast,170,2013-07-13 18:15:00
2:35 PM,84.0,73.8,71,30.17,10.0,South,17.3,20.7,N/A,,Overcast,170,2013-07-13 18:35:00
2:55 PM,84.2,73.0,69,30.18,10.0,South,16.1,23.0,N/A,,Overcast,170,2013-07-13 18:55:00
3:15 PM,84.0,73.0,69,30.18,10.0,SSE,15.0,23.0,N/A,,Mostly Cloudy,160,2013-07-13 19:15:00
3:35 PM,85.3,72.3,65,30.18,10.0,South,17.3,23.0,N/A,,Mostly Cloudy,180,2013-07-13 19:35:00
3:55 PM,85.1,73.0,67,30.19,10.0,South,13.8,20.7,N/A,,Scattered Clouds,180,2013-07-13 19:55:00
4:15 PM,84.7,72.5,67,30.18,10.0,South,12.7,23.0,N/A,,Scattered Clouds,170,2013-07-13 20:15:00
4:35 PM,84.4,73.4,69,30.18,10.0,South,15.0,20.7,N/A,,Clear,190,2013-07-13 20:35:00
4:55 PM,84.0,73.0,69,30.18,10.0,SSE,13.8,18.4,N/A,,Scattered Clouds,160,2013-07-13 20:55:00
5:15 PM,84.2,73.0,69,30.18,10.0,South,15.0,20.7,N/A,,Scattered Clouds,170,2013-07-13 21:15:00
5:35 PM,83.8,72.9,69,30.18,10.0,South,15.0,20.7,N/A,,Scattered Clouds,180,2013-07-13 21:35:00
5:55 PM,83.7,73.2,71,30.18,10.0,South,13.8,20.7,N/A,,Clear,180,2013-07-13 21:55:00
6:15 PM,83.3,73.0,71,30.19,10.0,South,13.8,19.6,N/A,,Clear,180,2013-07-13 22:15:00
6:35 PM,82.9,73.6,73,30.19,10.0,South,11.5,-,N/A,,Scattered Clouds,180,2013-07-13 22:35:00
6:55 PM,82.8,73.6,74,30.19,10.0,SSE,10.4,-,N/A,,Mostly Cloudy,160,2013-07-13 22:55:00
7:15 PM,82.0,73.6,75,30.20,10.0,South,10.4,17.3,N/A,,Scattered Clouds,180,2013-07-13 23:15:00
7:35 PM,81.5,74.1,78,30.21,10.0,South,10.4,-,N/A,,Mostly Cloudy,180,2013-07-13 23:35:00
7:55 PM,81.0,74.3,80,30.21,10.0,South,10.4,16.1,N/A,,Mostly Cloudy,170,2013-07-13 23:55:00
8:15 PM,80.2,74.5,83,30.21,10.0,South,6.9,-,N/A,,Scattered Clouds,170,2013-07-14 00:15:00
8:35 PM,79.9,74.8,85,30.21,10.0,SSE,8.1,-,N/A,,Mostly Cloudy,150,2013-07-14 00:35:00
8:55 PM,79.7,74.8,85,30.22,10.0,SE,5.8,-,N/A,,Overcast,140,2013-07-14 00:55:00
9:15 PM,78.8,75.2,89,30.22,10.0,SE,6.9,-,N/A,,Mostly Cloudy,140,2013-07-14 01:15:00
9:35 PM,78.3,75.2,90,30.24,10.0,SE,5.8,-,N/A,,Scattered Clouds,140,2013-07-14 01:35:00
9:55 PM,78.1,75.2,91,30.24,10.0,SE,5.8,-,N/A,,Clear,140,2013-07-14 01:55:00
10:15 PM,77.9,75.2,91,30.24,10.0,SE,6.9,-,N/A,,Clear,140,2013-07-14 02:15:00
10:35 PM,77.5,75.2,92,30.25,10.0,SE,5.8,-,N/A,,Clear,130,2013-07-14 02:35:00
10:55 PM,77.5,75.2,92,30.25,10.0,SE,6.9,-,N/A,,Clear,130,2013-07-14 02:55:00
11:15 PM,77.4,75.0,92,30.26,10.0,SE,6.9,-,N/A,,Clear,130,2013-07-14 03:15:00
11:35 PM,77.4,74.8,92,30.26,10.0,SE,8.1,-,N/A,,Clear,140,2013-07-14 03:35:00
11:55 PM,77.4,75.0,92,30.26,10.0,SE,6.9,-,N/A,,Clear,140,2013-07-14 03:55:00